createdAt,value
2022-12-03T00:00:30.778Z,6.30
2022-12-03T00:02:57.472Z,7.73
2022-12-03T00:05:24.193Z,8.20
2022-12-03T00:07:50.912Z,7.40
2022-12-03T00:10:17.656Z,5.87
2022-12-03T00:12:44.267Z,7.73
2022-12-03T00:15:11.753Z,7.83
2022-12-03T00:17:38.498Z,7.67
2022-12-03T00:20:07.704Z,8.40
2022-12-03T00:22:34.365Z,6.83
2022-12-03T00:25:01.094Z,6.70
2022-12-03T00:27:27.705Z,9.37
2022-12-03T00:29:54.348Z,7.97
2022-12-03T00:32:20.992Z,8.60
2022-12-03T00:34:47.662Z,9.80
2022-12-03T00:37:14.308Z,10.20
2022-12-03T00:39:40.946Z,11.60
2022-12-03T00:42:07.595Z,9.83
2022-12-03T00:44:34.245Z,10.37
2022-12-03T00:47:01.062Z,10.97
2022-12-03T00:49:27.669Z,10.13
2022-12-03T00:51:54.266Z,9.43
2022-12-03T00:54:20.900Z,12.30
2022-12-03T00:56:51.448Z,10.03
2022-12-03T00:59:18.213Z,11.13
2022-12-03T01:01:44.879Z,13.37
2022-12-03T01:04:11.590Z,13.10
2022-12-03T01:06:38.534Z,12.47
2022-12-03T01:09:05.331Z,12.67
2022-12-03T01:11:38.082Z,10.27
2022-12-03T01:14:10.694Z,9.67
2022-12-03T01:16:37.921Z,12.47
2022-12-03T01:19:05.966Z,11.50
2022-12-03T01:21:33.355Z,15.53
2022-12-03T01:24:00.141Z,12.47
2022-12-03T01:26:26.879Z,11.30
2022-12-03T01:28:53.835Z,10.03
2022-12-03T01:31:39.870Z,14.03
2022-12-03T01:34:06.776Z,10.03
2022-12-03T01:36:36.083Z,8.03
2022-12-03T01:39:04.268Z,10.33
2022-12-03T01:41:32.620Z,10.67
2022-12-03T01:44:00.090Z,9.33
2022-12-03T01:46:40.931Z,13.47
2022-12-03T01:49:14.733Z,9.13
2022-12-03T01:51:41.392Z,10.30
2022-12-03T01:54:22.376Z,8.47
2022-12-03T01:56:49.577Z,10.67
2022-12-03T01:59:23.157Z,13.20
2022-12-03T02:01:49.923Z,10.07
2022-12-03T02:04:22.629Z,14.43
2022-12-03T02:06:49.423Z,12.93
2022-12-03T02:09:16.009Z,11.20
2022-12-03T02:11:47.120Z,13.67
2022-12-03T02:14:19.528Z,14.60
2022-12-03T02:16:46.753Z,9.40
2022-12-03T02:19:26.832Z,16.20
2022-12-03T02:21:59.416Z,13.87
2022-12-03T02:24:46.277Z,13.57
2022-12-03T02:27:12.913Z,11.47
2022-12-03T02:29:39.795Z,13.50
2022-12-03T02:32:06.501Z,10.50
2022-12-03T02:34:35.754Z,11.90
2022-12-03T02:37:05.879Z,7.87
2022-12-03T02:39:35.404Z,7.70
2022-12-03T02:42:20.763Z,7.73
2022-12-03T02:44:47.380Z,7.30
2022-12-03T02:47:14.016Z,9.83
2022-12-03T02:49:41.135Z,9.87
2022-12-03T02:52:07.944Z,8.63
2022-12-03T02:54:35.053Z,9.13
2022-12-03T02:57:02.497Z,9.77
2022-12-03T02:59:29.219Z,8.53
2022-12-03T03:01:56.293Z,9.10
2022-12-03T03:04:24.907Z,10.10
2022-12-03T03:06:52.352Z,8.27
2022-12-03T03:09:20.263Z,11.07
2022-12-03T03:11:47.002Z,9.70
2022-12-03T03:14:14.006Z,10.30
2022-12-03T03:16:40.789Z,8.77
2022-12-03T03:19:07.534Z,7.27
2022-12-03T03:21:34.253Z,8.70
2022-12-03T03:24:00.899Z,8.60
2022-12-03T03:26:27.562Z,6.27
2022-12-03T03:28:54.225Z,7.83
2022-12-03T03:31:23.688Z,8.10
2022-12-03T03:33:50.967Z,8.70
2022-12-03T03:36:18.690Z,10.27
2022-12-03T03:38:46.416Z,7.83
2022-12-03T03:41:15.005Z,7.03
2022-12-03T03:43:43.302Z,5.63
2022-12-03T03:46:11.125Z,7.23
2022-12-03T03:48:38.671Z,6.10
2022-12-03T03:51:09.456Z,8.70
2022-12-03T03:53:42.867Z,7.10
2022-12-03T03:56:10.663Z,6.30
2022-12-03T03:58:38.118Z,6.10
2022-12-03T04:01:04.788Z,4.17
2022-12-03T04:03:31.443Z,5.93
2022-12-03T04:05:58.422Z,6.67
2022-12-03T04:08:25.108Z,5.30
2022-12-03T04:11:10.252Z,4.83
2022-12-03T04:13:36.920Z,10.10
2022-12-03T04:16:03.985Z,6.83
2022-12-03T04:18:42.841Z,7.60
2022-12-03T04:21:36.398Z,6.67
2022-12-03T04:24:03.707Z,7.47
2022-12-03T04:26:49.102Z,6.17
2022-12-03T04:29:15.857Z,7.70
2022-12-03T04:32:00.857Z,7.57
2022-12-03T04:35:05.905Z,8.70
2022-12-03T04:37:32.653Z,7.43
2022-12-03T04:39:59.229Z,7.33
2022-12-03T04:42:25.834Z,6.93
2022-12-03T04:44:52.876Z,6.37
2022-12-03T04:47:21.644Z,5.43
2022-12-03T04:49:50.389Z,7.20
2022-12-03T04:52:19.217Z,9.37
2022-12-03T04:54:46.039Z,4.73
2022-12-03T04:57:13.081Z,6.03
2022-12-03T04:59:39.775Z,8.77
2022-12-03T05:02:07.323Z,5.27
2022-12-03T05:04:34.275Z,6.23
2022-12-03T05:07:00.956Z,6.23
2022-12-03T05:09:27.614Z,4.27
2022-12-03T05:11:54.257Z,6.57
2022-12-03T05:14:20.901Z,6.27
2022-12-03T05:16:48.047Z,5.40
2022-12-03T05:19:14.772Z,3.20
2022-12-03T05:21:41.447Z,4.87
2022-12-03T05:24:08.169Z,6.23
2022-12-03T05:26:34.847Z,5.07
2022-12-03T05:29:01.599Z,4.60
2022-12-03T05:31:28.218Z,5.40
2022-12-03T05:33:55.256Z,4.67
2022-12-03T05:36:21.993Z,4.47
2022-12-03T05:38:48.773Z,4.83
2022-12-03T05:41:33.930Z,6.03
2022-12-03T05:44:00.543Z,3.90
2022-12-03T05:46:27.227Z,4.23
2022-12-03T05:48:53.947Z,3.93
2022-12-03T05:51:20.709Z,5.90
2022-12-03T05:53:47.287Z,5.33
2022-12-03T05:56:13.916Z,3.43
2022-12-03T05:58:40.475Z,4.27
2022-12-03T06:01:07.161Z,3.80
2022-12-03T06:03:33.994Z,4.17
2022-12-03T06:06:00.678Z,4.63
2022-12-03T06:08:27.354Z,5.47
2022-12-03T06:10:54.043Z,4.73
2022-12-03T06:13:20.653Z,6.33
2022-12-03T06:15:47.362Z,4.90
2022-12-03T06:18:14.159Z,5.80
2022-12-03T06:20:40.789Z,6.90
2022-12-03T06:23:07.394Z,5.40
2022-12-03T06:25:33.982Z,4.73
2022-12-03T06:28:00.733Z,5.07
2022-12-03T06:30:27.346Z,6.30
2022-12-03T06:32:53.997Z,4.27
2022-12-03T06:35:20.624Z,4.33
2022-12-03T06:37:47.234Z,6.40
2022-12-03T06:40:14.122Z,3.50
2022-12-03T06:42:40.756Z,3.43
2022-12-03T06:45:07.558Z,5.23
2022-12-03T06:47:34.206Z,5.10
2022-12-03T06:50:00.773Z,6.30
2022-12-03T06:52:27.414Z,3.03
2022-12-03T06:54:54.429Z,11.67
2022-12-03T06:57:21.272Z,12.13
2022-12-03T06:59:47.857Z,10.07
2022-12-03T07:02:14.455Z,11.77
2022-12-03T07:04:46.060Z,8.53
2022-12-03T07:07:13.409Z,9.33
2022-12-03T07:09:40.030Z,6.30
2022-12-03T07:12:06.806Z,9.07
2022-12-03T07:14:33.402Z,5.50
2022-12-03T07:17:00.460Z,8.93
2022-12-03T07:19:32.375Z,113.00
2022-12-03T07:21:59.680Z,49.60
2022-12-03T07:24:30.048Z,8.37
2022-12-03T07:27:04.710Z,8.23
2022-12-03T07:29:34.241Z,79.13
2022-12-03T07:32:02.147Z,44.73
2022-12-03T07:34:29.245Z,27.40
2022-12-03T07:36:55.981Z,18.00
2022-12-03T07:39:22.739Z,49.47
2022-12-03T07:41:49.344Z,13.70
2022-12-03T07:44:16.022Z,17.53
2022-12-03T07:46:45.587Z,8.33
2022-12-03T07:49:13.213Z,5.47
2022-12-03T07:51:40.408Z,6.97
2022-12-03T07:54:07.227Z,5.80
2022-12-03T07:56:34.135Z,16.93
2022-12-03T07:59:00.818Z,16.97
2022-12-03T08:01:27.505Z,5.73
2022-12-03T08:03:54.118Z,8.93
2022-12-03T08:06:20.695Z,9.50
2022-12-03T08:08:47.326Z,8.63
2022-12-03T08:11:16.985Z,5.17
2022-12-03T08:13:43.774Z,12.27
2022-12-03T08:16:21.846Z,17.80
2022-12-03T08:18:50.440Z,9.93
2022-12-03T08:21:22.032Z,7.43
2022-12-03T08:23:48.948Z,4.90
2022-12-03T08:26:25.673Z,7.77
2022-12-03T08:28:53.329Z,7.77
2022-12-03T08:31:32.269Z,5.77
2022-12-03T08:34:16.235Z,5.30
2022-12-03T08:36:42.936Z,9.03
2022-12-03T08:39:33.551Z,23.03
2022-12-03T08:42:42.322Z,11.00
2022-12-03T08:45:35.192Z,11.67
2022-12-03T08:48:29.588Z,17.60
2022-12-03T08:50:59.335Z,9.67
2022-12-03T08:53:47.671Z,6.13
2022-12-03T08:56:22.707Z,6.53
2022-12-03T08:59:06.696Z,5.53
2022-12-03T09:01:37.582Z,6.03
2022-12-03T09:04:24.715Z,5.20
2022-12-03T09:06:52.538Z,5.67
2022-12-03T09:09:19.697Z,4.57
2022-12-03T09:11:47.297Z,4.70
2022-12-03T09:14:18.484Z,4.73
2022-12-03T09:16:45.741Z,5.63
2022-12-03T09:19:12.443Z,5.87
2022-12-03T09:21:39.102Z,7.07
2022-12-03T09:24:06.046Z,4.77
2022-12-03T09:26:32.633Z,5.57
2022-12-03T09:28:59.259Z,5.63
2022-12-03T09:31:25.936Z,4.43
2022-12-03T09:33:52.660Z,4.67
2022-12-03T09:36:19.349Z,5.83
2022-12-03T09:38:47.879Z,5.77
2022-12-03T09:41:14.908Z,6.07
2022-12-03T09:46:30.173Z,7.83
2022-12-03T09:48:57.142Z,7.40
2022-12-03T09:51:31.923Z,5.57
2022-12-03T09:54:04.389Z,11.13
2022-12-03T09:56:31.453Z,5.13
2022-12-03T09:58:58.411Z,5.17
2022-12-03T10:01:29.886Z,5.27
2022-12-03T10:03:57.036Z,7.40
2022-12-03T10:06:23.999Z,4.37
2022-12-03T10:08:54.845Z,5.67
2022-12-03T10:11:25.536Z,6.30
2022-12-03T10:13:55.385Z,4.87
2022-12-03T10:16:22.798Z,8.07
2022-12-03T10:18:53.592Z,7.93
2022-12-03T10:21:32.503Z,9.57
2022-12-03T10:24:29.975Z,6.13
2022-12-03T10:27:02.794Z,10.37
2022-12-03T10:29:34.387Z,4.30
2022-12-03T10:32:04.922Z,5.77
2022-12-03T10:34:34.476Z,8.70
2022-12-03T10:37:22.878Z,8.07
2022-12-03T10:40:11.785Z,8.20
2022-12-03T10:42:40.756Z,8.13
2022-12-03T10:45:23.176Z,9.10
2022-12-03T10:48:07.330Z,7.17
2022-12-03T10:50:35.385Z,11.13
2022-12-03T10:53:05.451Z,6.73
2022-12-03T10:55:38.596Z,9.40
2022-12-03T10:58:05.272Z,9.00
2022-12-03T11:00:31.895Z,12.00
2022-12-03T11:02:58.495Z,10.13
2022-12-03T11:05:27.497Z,9.47
2022-12-03T11:07:54.606Z,15.37
2022-12-03T11:10:21.974Z,10.13
2022-12-03T11:13:25.904Z,16.13
2022-12-03T11:15:53.243Z,9.23
2022-12-03T11:18:38.561Z,6.67
2022-12-03T11:21:06.721Z,8.13
2022-12-03T11:23:45.366Z,8.20
2022-12-03T11:26:19.436Z,6.30
2022-12-03T11:28:46.493Z,4.77
2022-12-03T11:31:46.591Z,6.23
2022-12-03T11:34:22.630Z,9.60
2022-12-03T11:37:08.100Z,12.03
2022-12-03T11:39:50.487Z,9.47
2022-12-03T11:42:25.840Z,13.47
2022-12-03T11:45:22.606Z,13.03
2022-12-03T11:47:58.341Z,8.63
2022-12-03T11:50:37.607Z,5.83
2022-12-03T11:53:35.816Z,9.17
2022-12-03T11:56:11.156Z,7.20
2022-12-03T11:58:41.494Z,7.60
2022-12-03T12:01:09.142Z,8.17
2022-12-03T12:03:37.313Z,8.83
2022-12-03T12:06:05.860Z,8.87
2022-12-03T12:08:34.639Z,8.83
2022-12-03T12:11:15.617Z,9.80
2022-12-03T12:13:42.240Z,17.93
2022-12-03T12:16:10.010Z,17.30
2022-12-03T12:18:37.901Z,16.70
2022-12-03T12:21:38.580Z,12.43
2022-12-03T12:24:29.581Z,14.73
2022-12-03T12:26:58.317Z,6.50
2022-12-03T12:29:25.139Z,8.10
2022-12-03T12:32:01.025Z,10.27
2022-12-03T12:34:27.672Z,12.43
2022-12-03T12:37:05.164Z,5.47
2022-12-03T12:39:32.057Z,13.23
2022-12-03T12:41:59.437Z,18.60
2022-12-03T12:44:28.050Z,14.87
2022-12-03T12:46:55.009Z,11.13
2022-12-03T12:49:27.256Z,15.20
2022-12-03T12:51:54.090Z,17.53
2022-12-03T12:54:20.937Z,26.00
2022-12-03T12:56:56.927Z,36.80
2022-12-03T12:59:32.244Z,11.23
2022-12-03T13:02:01.748Z,12.60
2022-12-03T13:04:31.351Z,14.33
2022-12-03T13:06:59.527Z,15.37
2022-12-03T13:09:27.055Z,15.37
2022-12-03T13:12:04.047Z,15.67
2022-12-03T13:14:37.476Z,12.97
2022-12-03T13:17:16.421Z,11.27
2022-12-03T13:19:47.579Z,11.97
2022-12-03T13:22:21.314Z,11.03
2022-12-03T13:24:50.949Z,13.20
2022-12-03T13:27:17.519Z,15.90
2022-12-03T13:29:51.398Z,16.10
2022-12-03T13:32:23.348Z,20.03
2022-12-03T13:34:55.314Z,16.10
2022-12-03T13:37:25.341Z,31.87
2022-12-03T13:39:55.178Z,25.57
2022-12-03T13:42:41.475Z,21.67
2022-12-03T13:45:14.048Z,20.30
2022-12-03T13:47:55.218Z,27.57
2022-12-03T13:50:27.740Z,31.43
2022-12-03T13:52:55.179Z,30.80
2022-12-03T13:55:29.381Z,40.30
2022-12-03T13:57:56.784Z,34.77
2022-12-03T14:05:53.858Z,35.93
2022-12-03T14:08:20.589Z,45.13
2022-12-03T14:10:47.334Z,26.40
2022-12-03T14:13:13.989Z,20.10
2022-12-03T14:15:40.622Z,26.20
2022-12-03T14:18:07.215Z,27.10
2022-12-03T14:20:35.020Z,21.50
2022-12-03T14:23:02.865Z,18.57
2022-12-03T14:25:29.459Z,22.87
2022-12-03T14:27:56.170Z,33.50
2022-12-03T14:30:22.840Z,57.20
2022-12-03T14:32:49.474Z,37.03
2022-12-03T14:35:16.228Z,31.10
2022-12-03T14:37:42.856Z,86.10
2022-12-03T14:40:09.799Z,120.93
2022-12-03T14:42:37.107Z,39.67
2022-12-03T14:45:04.521Z,25.90
2022-12-03T14:47:31.171Z,30.03
2022-12-03T14:49:58.004Z,42.50
2022-12-03T14:52:24.943Z,24.73
2022-12-03T14:54:51.659Z,30.97
2022-12-03T14:57:18.341Z,25.97
2022-12-03T14:59:47.079Z,24.77
2022-12-03T15:02:13.839Z,41.03
2022-12-03T15:04:41.076Z,27.83
2022-12-03T15:07:08.285Z,67.50
2022-12-03T15:09:35.056Z,56.77
2022-12-03T15:12:04.058Z,45.67
2022-12-03T15:14:30.845Z,32.87
2022-12-03T15:16:57.809Z,40.23
2022-12-03T15:19:24.561Z,24.23
2022-12-03T15:21:51.148Z,28.87
2022-12-03T15:24:17.852Z,26.27
2022-12-03T15:26:44.465Z,24.70
2022-12-03T15:29:11.235Z,27.83
2022-12-03T15:31:37.845Z,29.37
2022-12-03T15:34:04.492Z,37.10
2022-12-03T15:36:31.228Z,35.17
2022-12-03T15:38:57.865Z,23.90
2022-12-03T15:41:30.869Z,26.13
2022-12-03T15:44:01.546Z,30.90
2022-12-03T15:46:28.987Z,31.07
2022-12-03T15:48:55.896Z,26.00
2022-12-03T15:51:22.824Z,38.20
2022-12-03T15:53:49.667Z,37.70
2022-12-03T15:56:16.659Z,40.37
2022-12-03T15:58:43.748Z,42.23
2022-12-03T16:01:10.723Z,35.50
2022-12-03T16:03:37.477Z,75.97
2022-12-03T16:06:04.286Z,59.93
2022-12-03T16:08:31.039Z,50.00
2022-12-03T16:10:57.658Z,45.13
2022-12-03T16:13:24.337Z,30.07
2022-12-03T16:15:50.994Z,26.67
2022-12-03T16:18:17.646Z,28.20
2022-12-03T16:20:44.478Z,30.07
2022-12-03T16:23:11.103Z,38.03
2022-12-03T16:25:37.691Z,64.00
2022-12-03T16:28:04.380Z,42.17
2022-12-03T16:30:31.099Z,33.30
2022-12-03T16:33:03.060Z,50.10
2022-12-03T16:35:29.743Z,16.70
2022-12-03T16:38:20.627Z,36.27
2022-12-03T16:40:47.619Z,19.10
2022-12-03T16:43:14.256Z,29.37
2022-12-03T16:46:00.890Z,30.73
2022-12-03T16:48:30.759Z,18.53
2022-12-03T16:50:57.423Z,18.80
2022-12-03T16:53:24.072Z,21.60
2022-12-03T16:55:50.696Z,34.97
2022-12-03T16:58:22.026Z,29.20
2022-12-03T17:00:49.604Z,44.97
2022-12-03T17:03:17.959Z,48.40
2022-12-03T17:05:45.047Z,31.97
2022-12-03T17:08:12.036Z,25.23
2022-12-03T17:10:39.258Z,22.67
2022-12-03T17:13:10.302Z,27.63
2022-12-03T17:15:37.895Z,33.10
2022-12-03T17:18:04.857Z,19.07
2022-12-03T17:20:32.383Z,16.27
2022-12-03T17:22:59.950Z,20.27
2022-12-03T17:25:27.436Z,18.83
2022-12-03T17:27:54.487Z,18.33
2022-12-03T17:30:21.301Z,14.67
2022-12-03T17:32:50.590Z,15.13
2022-12-03T17:35:18.154Z,27.80
2022-12-03T17:37:44.975Z,38.90
2022-12-03T17:40:13.921Z,36.00
2022-12-03T17:42:40.739Z,29.00
2022-12-03T17:45:08.068Z,21.87
2022-12-03T17:47:34.746Z,31.10
2022-12-03T17:50:03.152Z,33.67
2022-12-03T17:52:29.797Z,40.50
2022-12-03T17:55:10.833Z,29.83
2022-12-03T17:57:38.707Z,32.97
2022-12-03T18:00:06.058Z,28.33
2022-12-03T18:02:32.623Z,33.10
2022-12-03T18:04:59.366Z,30.23
2022-12-03T18:07:26.030Z,47.40
2022-12-03T18:09:53.441Z,23.50
2022-12-03T18:12:20.242Z,25.57
2022-12-03T18:14:46.901Z,32.53
2022-12-03T18:17:14.364Z,26.23
2022-12-03T18:19:41.028Z,28.10
2022-12-03T18:22:07.789Z,26.57
2022-12-03T18:24:34.835Z,27.17
2022-12-03T18:27:01.440Z,21.47
2022-12-03T18:29:28.106Z,17.50
2022-12-03T18:31:54.738Z,17.47
2022-12-03T18:34:21.472Z,24.97
2022-12-03T18:36:49.535Z,34.33
2022-12-03T18:39:29.106Z,26.17
2022-12-03T18:41:55.962Z,31.10
2022-12-03T18:44:22.693Z,50.10
2022-12-03T18:46:53.969Z,59.57
2022-12-03T18:49:21.759Z,33.07
2022-12-03T18:51:48.964Z,35.47
2022-12-03T18:54:22.335Z,26.37
2022-12-03T18:56:49.633Z,30.07
2022-12-03T18:59:16.298Z,38.60
2022-12-03T19:01:42.995Z,22.07
2022-12-03T19:04:10.602Z,25.10
2022-12-03T19:06:37.283Z,26.87
2022-12-03T19:09:04.471Z,19.03
2022-12-03T19:11:31.233Z,23.33
2022-12-03T19:13:59.123Z,19.97
2022-12-03T19:16:26.184Z,19.77
2022-12-03T19:18:53.990Z,16.90
2022-12-03T19:21:20.660Z,12.97
2022-12-03T19:24:16.434Z,32.50
2022-12-03T19:26:34.895Z,38.93
2022-12-03T19:29:02.006Z,23.23
2022-12-03T19:31:30.774Z,24.63
2022-12-03T19:33:57.445Z,23.13
2022-12-03T19:36:29.444Z,30.50
2022-12-03T19:38:57.906Z,25.87
2022-12-03T19:41:30.777Z,28.17
2022-12-03T19:43:58.756Z,20.63
2022-12-03T19:46:31.570Z,26.30
2022-12-03T19:48:58.557Z,25.13
2022-12-03T19:51:38.781Z,18.13
2022-12-03T19:54:06.709Z,17.23
2022-12-03T19:56:34.286Z,36.63
2022-12-03T19:59:00.917Z,39.97
2022-12-03T20:01:30.034Z,40.93
2022-12-03T20:03:58.968Z,49.60
2022-12-03T20:06:28.663Z,24.93
2022-12-03T20:09:03.904Z,28.17
2022-12-03T20:11:32.832Z,33.53
2022-12-03T20:14:02.802Z,26.67
2022-12-03T20:16:29.831Z,36.07
2022-12-03T20:18:59.319Z,26.63
2022-12-03T20:21:26.532Z,23.57
2022-12-03T20:23:53.438Z,19.40
2022-12-03T20:26:21.524Z,18.20
2022-12-03T20:28:48.451Z,16.20
2022-12-03T20:31:18.056Z,16.60
2022-12-03T20:33:47.301Z,12.33
2022-12-03T20:36:15.650Z,14.80
2022-12-03T20:38:42.772Z,14.70
2022-12-03T20:41:12.073Z,17.50
2022-12-03T20:43:38.885Z,16.07
2022-12-03T20:46:13.587Z,13.63
2022-12-03T20:48:41.138Z,13.17
2022-12-03T20:51:10.750Z,14.80
2022-12-03T20:53:38.675Z,11.37
2022-12-03T20:56:06.107Z,13.40
2022-12-03T20:58:33.845Z,10.23
2022-12-03T21:01:34.277Z,10.90
2022-12-03T21:04:01.027Z,16.63
2022-12-03T21:06:30.040Z,14.47
2022-12-03T21:08:58.571Z,13.23
2022-12-03T21:11:27.542Z,10.67
2022-12-03T21:13:54.631Z,14.13
2022-12-03T21:16:52.180Z,12.30
2022-12-03T21:19:17.087Z,14.00
2022-12-03T21:21:44.048Z,14.00
2022-12-03T21:24:11.983Z,12.07
2022-12-03T21:26:38.700Z,14.37
2022-12-03T21:29:05.361Z,18.27
2022-12-03T21:31:32.533Z,15.40
2022-12-03T21:33:59.356Z,17.17
2022-12-03T21:36:26.306Z,17.10
2022-12-03T21:38:53.047Z,15.73
2022-12-03T21:41:19.694Z,13.87
2022-12-03T21:43:46.445Z,11.80
2022-12-03T21:47:09.745Z,10.93
2022-12-03T21:49:02.955Z,9.30
2022-12-03T21:51:29.649Z,10.83
2022-12-03T21:53:56.258Z,9.00
2022-12-03T21:56:23.066Z,10.97
2022-12-03T21:58:49.763Z,8.53
2022-12-03T22:01:23.513Z,10.23
2022-12-03T22:03:50.976Z,12.40
2022-12-03T22:06:17.784Z,7.97
2022-12-03T22:08:44.816Z,10.23
2022-12-03T22:11:14.374Z,7.17
2022-12-03T22:13:41.350Z,10.20
2022-12-03T22:16:10.930Z,7.37
2022-12-03T22:18:37.866Z,8.47
2022-12-03T22:21:06.653Z,9.43
2022-12-03T22:23:33.670Z,11.27
2022-12-03T22:26:02.286Z,13.70
2022-12-03T22:28:29.387Z,21.13
2022-12-03T22:30:56.166Z,20.03
2022-12-03T22:33:23.409Z,19.43
2022-12-03T22:36:03.260Z,32.70
2022-12-03T22:38:31.492Z,43.23
2022-12-03T22:40:58.213Z,58.40
2022-12-03T22:43:24.955Z,70.17
2022-12-03T22:45:55.700Z,58.47
2022-12-03T22:48:23.478Z,52.93
2022-12-03T22:50:51.544Z,42.03
2022-12-03T22:53:18.791Z,52.43
2022-12-03T22:55:45.439Z,38.50
2022-12-03T22:58:12.262Z,28.13
2022-12-03T23:00:41.137Z,27.37
2022-12-03T23:03:08.433Z,25.63
2022-12-03T23:05:38.613Z,28.13
2022-12-03T23:08:11.021Z,19.53
2022-12-03T23:10:40.724Z,19.53
2022-12-03T23:13:08.234Z,21.77
2022-12-03T23:15:34.903Z,18.60
2022-12-03T23:18:01.554Z,17.43
2022-12-03T23:20:28.956Z,15.43
2022-12-03T23:22:55.754Z,19.87
2022-12-03T23:25:22.627Z,21.43
2022-12-03T23:27:49.293Z,27.13
2022-12-03T23:30:16.914Z,21.83
2022-12-03T23:32:44.572Z,16.73
2022-12-03T23:35:12.759Z,13.90
2022-12-03T23:37:43.441Z,17.90
2022-12-03T23:40:11.301Z,15.33
2022-12-03T23:42:37.983Z,15.93
2022-12-03T23:45:04.922Z,16.37
2022-12-03T23:47:31.582Z,13.50
2022-12-03T23:49:58.252Z,11.10
2022-12-03T23:52:24.888Z,9.20
2022-12-03T23:54:51.521Z,12.20
2022-12-03T23:57:18.481Z,10.83
2022-12-03T23:59:45.231Z,10.50
